Time;durP1;ratioP1;P1;durP2;ratioP2;P2;SDS_P1;SDS_P2;PMS_P1;PMS_P2;Temp;Humidity;BMP_temperature;BMP_pressure;BME280_temperature;BME280_humidity;BME280_pressure;Samples;Min_cycle;Max_cycle;Signal;HPM_P1;HPM_P2
2021/11/09 00:00:12;;;;;;;25.38;10.13;;;7.90;99.90;;;;;;5046158;28;20041;-75
2021/11/09 00:02:39;;;;;;;22.23;9.02;;;7.80;99.90;;;;;;5036140;28;20051;-75
2021/11/09 00:05:09;;;;;;;24.20;9.68;;;7.80;99.90;;;;;;5044991;28;20052;-75
2021/11/09 00:07:57;;;;;;;32.95;10.18;;;7.70;99.90;;;;;;5052124;28;20064;-75
2021/11/09 00:10:22;;;;;;;23.83;8.93;;;7.70;99.90;;;;;;5050828;28;20067;-75
2021/11/09 00:12:53;;;;;;;37.70;10.57;;;7.70;99.90;;;;;;5067481;28;20060;-75
2021/11/09 00:15:21;;;;;;;22.02;9.10;;;7.70;99.90;;;;;;5048588;28;20114;-75
2021/11/09 00:17:49;;;;;;;29.70;9.68;;;7.70;99.90;;;;;;5050638;28;20147;-75
2021/11/09 00:20:19;;;;;;;27.33;9.18;;;7.60;99.90;;;;;;5056473;28;20097;-75
2021/11/09 00:22:46;;;;;;;28.88;9.27;;;7.60;99.90;;;;;;5034025;28;20056;-75
2021/11/09 00:25:12;;;;;;;24.38;9.00;;;7.60;99.90;;;;;;5040809;28;20151;-75
2021/11/09 00:27:38;;;;;;;23.70;8.70;;;7.60;99.90;;;;;;5033611;28;20048;-75
2021/11/09 00:30:07;;;;;;;25.92;7.55;;;7.50;99.90;;;;;;5076700;28;20040;-75
2021/11/09 00:32:32;;;;;;;26.25;8.57;;;7.50;99.90;;;;;;5059013;28;20052;-75
2021/11/09 00:34:59;;;;;;;28.67;9.00;;;7.50;99.90;;;;;;5038561;28;20028;-75
2021/11/09 00:37:24;;;;;;;27.50;8.32;;;7.50;99.90;;;;;;5053775;28;20123;-75
2021/11/09 00:39:50;;;;;;;23.40;7.78;;;7.50;99.90;;;;;;5055303;28;20132;-75
2021/11/09 00:42:16;;;;;;;27.10;7.95;;;7.40;99.90;;;;;;5039165;28;20036;-75
2021/11/09 00:44:42;;;;;;;19.67;7.70;;;7.40;99.90;;;;;;5054555;28;20075;-75
2021/11/09 00:47:08;;;;;;;23.13;7.90;;;7.30;99.90;;;;;;5067045;28;20072;-75
2021/11/09 00:49:35;;;;;;;26.50;7.78;;;7.30;99.90;;;;;;5054612;28;20048;-75
2021/11/09 00:52:01;;;;;;;26.42;8.05;;;7.30;99.90;;;;;;5051464;28;20341;-75
2021/11/09 00:54:27;;;;;;;30.13;8.63;;;7.30;99.90;;;;;;5044379;28;20452;-75
2021/11/09 00:56:53;;;;;;;21.85;8.30;;;7.20;99.90;;;;;;5051162;28;20079;-75
2021/11/09 00:59:19;;;;;;;21.10;7.95;;;7.20;99.90;;;;;;5055818;28;20068;-75
2021/11/09 01:01:44;;;;;;;29.83;8.68;;;7.20;99.90;;;;;;5037737;28;20048;-75
2021/11/09 01:04:10;;;;;;;30.85;8.63;;;7.10;99.90;;;;;;5055754;28;20045;-75
2021/11/09 01:06:36;;;;;;;23.55;8.40;;;7.10;99.90;;;;;;5054829;28;20057;-75
2021/11/09 01:09:04;;;;;;;26.60;8.30;;;7.10;99.90;;;;;;5053340;28;20450;-75
2021/11/09 01:11:30;;;;;;;23.90;9.18;;;7.10;99.90;;;;;;5056006;28;20133;-75
2021/11/09 01:13:56;;;;;;;23.70;9.27;;;7.10;99.90;;;;;;5048358;28;20135;-75
2021/11/09 01:16:22;;;;;;;23.17;8.52;;;7.10;99.90;;;;;;5056544;28;20049;-75
2021/11/09 01:18:52;;;;;;;28.38;9.90;;;7.10;99.90;;;;;;5056275;28;20055;-75
2021/11/09 01:21:19;;;;;;;31.50;10.43;;;7.00;99.90;;;;;;5038569;28;20064;-75
2021/11/09 01:23:47;;;;;;;25.02;9.15;;;7.10;99.90;;;;;;5052300;28;20044;-75
2021/11/09 01:26:14;;;;;;;29.88;9.90;;;7.00;99.90;;;;;;5051178;28;20226;-75
2021/11/09 01:28:40;;;;;;;24.55;9.93;;;7.00;99.90;;;;;;5035157;28;20049;-74
2021/11/09 01:31:08;;;;;;;29.77;9.93;;;7.00;99.90;;;;;;5051745;28;20075;-75
2021/11/09 01:33:34;;;;;;;29.88;10.48;;;7.00;99.90;;;;;;5051819;28;20049;-75
2021/11/09 01:36:01;;;;;;;29.00;10.27;;;6.90;99.90;;;;;;5051909;28;20037;-75
2021/11/09 01:38:27;;;;;;;30.63;10.45;;;6.90;99.90;;;;;;5051996;28;20049;-74
2021/11/09 01:40:53;;;;;;;29.30;10.20;;;6.90;99.90;;;;;;5048876;28;20043;-75
2021/11/09 01:43:22;;;;;;;30.02;10.05;;;6.90;99.90;;;;;;5051340;28;20086;-74
2021/11/09 01:45:49;;;;;;;32.13;10.82;;;6.80;99.90;;;;;;5047488;28;20044;-75
2021/11/09 01:48:17;;;;;;;37.85;11.07;;;7.10;99.90;;;;;;5056457;28;20043;-75
2021/11/09 01:50:47;;;;;;;33.00;10.73;;;6.90;99.90;;;;;;5054799;28;20040;-75
2021/11/09 01:53:13;;;;;;;40.47;11.02;;;6.90;99.90;;;;;;5058193;28;20151;-75
2021/11/09 01:55:40;;;;;;;35.25;11.18;;;6.80;99.90;;;;;;5065499;28;20044;-75
2021/11/09 01:58:07;;;;;;;34.58;10.63;;;6.80;99.90;;;;;;5052202;28;20067;-75
2021/11/09 02:00:48;;;;;;;32.75;11.18;;;6.80;99.90;;;;;;5052287;28;20040;-75
2021/11/09 02:03:15;;;;;;;29.77;10.80;;;6.80;99.90;;;;;;5066080;28;20052;-75
2021/11/09 02:05:42;;;;;;;39.88;11.77;;;6.70;99.90;;;;;;5055134;28;20053;-75
2021/11/09 02:08:08;;;;;;;34.85;10.73;;;6.70;99.90;;;;;;5055549;28;20463;-75
2021/11/09 02:10:39;;;;;;;33.03;10.63;;;6.70;99.90;;;;;;5035522;28;20037;-74
2021/11/09 02:13:05;;;;;;;27.50;11.00;;;6.70;99.90;;;;;;5046671;28;20040;-73
2021/11/09 02:15:32;;;;;;;39.75;12.50;;;6.60;99.90;;;;;;5057995;28;20496;-75
2021/11/09 02:17:59;;;;;;;40.25;11.80;;;6.60;99.90;;;;;;5055357;28;20083;-74
2021/11/09 02:20:26;;;;;;;40.90;11.40;;;6.60;99.90;;;;;;5051408;28;20045;-74
2021/11/09 02:22:54;;;;;;;38.60;11.23;;;6.60;99.90;;;;;;5035689;28;20063;-75
2021/11/09 02:25:22;;;;;;;33.05;10.88;;;6.60;99.90;;;;;;5057877;28;20124;-75
2021/11/09 02:27:49;;;;;;;38.83;11.13;;;6.50;99.90;;;;;;5040223;28;20079;-75
2021/11/09 02:30:20;;;;;;;30.30;10.68;;;6.50;99.90;;;;;;5038708;28;20415;-74
2021/11/09 02:32:47;;;;;;;32.92;12.00;;;6.50;99.90;;;;;;5083408;28;20040;-74
2021/11/09 02:35:16;;;;;;;35.58;10.02;;;6.50;99.90;;;;;;5075078;28;20119;-74
2021/11/09 02:37:42;;;;;;;36.60;10.75;;;6.50;99.90;;;;;;5063335;28;20037;-74
2021/11/09 02:40:10;;;;;;;33.05;10.50;;;6.50;99.90;;;;;;5055352;28;20400;-75
2021/11/09 02:42:41;;;;;;;33.17;11.18;;;6.50;99.90;;;;;;5056708;28;20420;-74
2021/11/09 02:45:15;;;;;;;37.08;10.98;;;6.40;99.90;;;;;;5054354;28;20356;-75
2021/11/09 02:47:58;;;;;;;35.80;10.68;;;6.40;99.90;;;;;;5054167;28;20036;-74
2021/11/09 02:50:28;;;;;;;31.83;10.73;;;6.40;99.90;;;;;;5055191;28;20036;-74
2021/11/09 02:52:59;;;;;;;35.38;10.07;;;6.40;99.90;;;;;;5065878;28;20430;-75
2021/11/09 02:55:35;;;;;;;30.63;11.45;;;6.40;99.90;;;;;;5058156;28;20040;-74
2021/11/09 03:00:40;;;;;;;41.50;10.98;;;6.40;99.90;;;;;;5054020;28;20495;-74
2021/11/09 03:03:16;;;;;;;30.92;11.50;;;6.30;99.90;;;;;;5051416;28;20067;-74
2021/11/09 03:08:38;;;;;;;29.15;10.88;;;6.20;99.90;;;;;;5054515;28;20376;-75
2021/11/09 03:11:05;;;;;;;36.00;11.15;;;6.20;99.90;;;;;;5053934;28;20055;-74
2021/11/09 03:13:30;;;;;;;39.80;12.30;;;6.20;99.90;;;;;;5051844;28;20052;-74
2021/11/09 03:16:02;;;;;;;26.75;11.48;;;6.10;99.90;;;;;;5066839;28;20105;-74
2021/11/09 03:18:29;;;;;;;30.52;11.50;;;6.10;99.90;;;;;;5054362;28;20090;-74
2021/11/09 03:45:22;;;;;;;34.05;11.90;;;6.00;99.90;;;;;;5041627;28;20251;-74
2021/11/09 03:47:52;;;;;;;35.80;12.10;;;6.00;99.90;;;;;;5055272;28;20079;-74
2021/11/09 03:50:21;;;;;;;36.20;11.35;;;6.00;99.90;;;;;;5037137;28;20040;-74
2021/11/09 03:52:52;;;;;;;36.83;11.82;;;5.90;99.90;;;;;;5052009;28;20131;-74
2021/11/09 04:06:01;;;;;;;31.00;11.70;;;5.80;99.90;;;;;;5026133;28;20049;-75
2021/11/09 04:13:30;;;;;;;33.63;11.23;;;5.80;99.90;;;;;;5001716;28;20125;-74
2021/11/09 04:16:16;;;;;;;36.08;11.13;;;5.80;99.90;;;;;;4985457;28;20037;-74
2021/11/09 04:21:20;;;;;;;31.58;10.52;;;5.70;99.90;;;;;;5013042;28;20152;-74
2021/11/09 04:26:49;;;;;;;41.95;11.25;;;5.70;99.90;;;;;;5012307;28;20099;-75
2021/11/09 04:29:27;;;;;;;32.65;10.75;;;5.70;99.90;;;;;;5011850;28;20133;-75
2021/11/09 04:53:44;;;;;;;28.88;10.13;;;5.60;99.90;;;;;;5057766;28;20468;-74
2021/11/09 05:11:50;;;;;;;30.90;10.07;;;5.60;99.90;;;;;;5052886;28;20387;-74
2021/11/09 05:14:16;;;;;;;31.58;10.45;;;5.60;99.90;;;;;;5031830;28;20056;-74
2021/11/09 05:16:43;;;;;;;38.78;11.32;;;5.60;99.90;;;;;;5056474;28;20037;-74
2021/11/09 05:19:09;;;;;;;33.45;11.40;;;5.60;99.90;;;;;;5040020;28;20494;-74
2021/11/09 05:21:37;;;;;;;38.47;10.85;;;5.50;99.90;;;;;;5046134;28;20047;-74
2021/11/09 05:24:03;;;;;;;29.08;10.48;;;5.50;99.90;;;;;;5064606;28;20048;-75
2021/11/09 05:26:29;;;;;;;42.33;10.75;;;5.50;99.90;;;;;;5055845;28;20048;-74
2021/11/09 05:28:56;;;;;;;38.15;10.85;;;5.50;99.90;;;;;;5056318;28;20048;-75
2021/11/09 05:31:22;;;;;;;39.25;10.90;;;5.50;99.90;;;;;;5039217;28;20044;-75
2021/11/09 05:33:51;;;;;;;39.38;9.82;;;5.60;99.90;;;;;;5066765;28;20056;-74
2021/11/09 05:36:17;;;;;;;50.20;10.52;;;5.50;99.90;;;;;;5056602;28;20044;-75
2021/11/09 05:38:54;;;;;;;45.10;11.27;;;5.40;99.90;;;;;;5055611;28;20403;-74
2021/11/09 05:41:21;;;;;;;38.22;11.05;;;5.40;99.90;;;;;;5056746;28;20036;-75
2021/11/09 05:43:48;;;;;;;40.30;11.63;;;5.40;99.90;;;;;;5072519;28;20056;-74
2021/11/09 05:46:14;;;;;;;53.70;11.90;;;5.40;99.90;;;;;;5059940;28;20044;-74
2021/11/09 05:48:40;;;;;;;52.08;13.07;;;5.50;99.90;;;;;;5056077;28;20063;-75
2021/11/09 05:51:07;;;;;;;58.95;14.70;;;5.40;99.90;;;;;;5054118;28;20143;-74
2021/11/09 05:53:35;;;;;;;61.60;15.20;;;5.60;99.90;;;;;;5050092;28;20052;-74
2021/11/09 05:56:04;;;;;;;55.03;14.57;;;5.50;99.90;;;;;;5037623;28;20498;-74
2021/11/09 05:58:30;;;;;;;63.35;15.10;;;5.50;99.90;;;;;;5033905;28;20388;-74
2021/11/09 06:00:55;;;;;;;74.10;16.23;;;5.60;99.90;;;;;;5034589;28;20047;-74
2021/11/09 06:03:24;;;;;;;65.88;15.63;;;5.60;99.90;;;;;;5058859;28;20043;-73
2021/11/09 06:05:52;;;;;;;58.58;15.15;;;5.50;99.90;;;;;;5055738;28;20044;-73
2021/11/09 06:08:18;;;;;;;56.33;14.68;;;5.60;99.90;;;;;;5055102;28;20044;-74
2021/11/09 06:10:43;;;;;;;66.85;14.05;;;5.60;99.90;;;;;;5054983;28;20048;-76
2021/11/09 06:13:09;;;;;;;68.20;15.50;;;5.60;99.90;;;;;;5055610;28;20119;-75
2021/11/09 06:15:35;;;;;;;75.68;15.77;;;5.60;99.90;;;;;;5049055;28;20036;-75
2021/11/09 06:18:00;;;;;;;57.05;13.93;;;5.60;99.90;;;;;;5059393;28;20044;-75
2021/11/09 06:20:26;;;;;;;51.33;14.02;;;5.60;99.90;;;;;;5065053;28;20040;-75
2021/11/09 06:22:52;;;;;;;62.88;14.98;;;5.60;99.90;;;;;;5075751;28;20036;-76
2021/11/09 06:25:18;;;;;;;48.30;13.68;;;5.60;99.90;;;;;;5056231;28;20104;-76
2021/11/09 06:27:43;;;;;;;50.60;14.20;;;5.60;99.90;;;;;;5054397;28;20036;-75
2021/11/09 06:30:09;;;;;;;48.42;12.25;;;5.70;99.90;;;;;;5055689;28;20547;-76
2021/11/09 06:32:35;;;;;;;54.30;13.38;;;6.80;99.90;;;;;;5038005;28;20041;-74
2021/11/09 06:35:02;;;;;;;45.60;12.65;;;6.90;99.90;;;;;;5053900;28;20036;-75
2021/11/09 06:37:31;;;;;;;50.50;12.82;;;6.10;99.90;;;;;;5052706;28;20037;-74
2021/11/09 06:39:57;;;;;;;53.33;14.35;;;5.90;99.90;;;;;;5066957;28;20056;-74
2021/11/09 06:42:22;;;;;;;48.13;13.63;;;5.90;99.90;;;;;;5061987;28;20116;-74
2021/11/09 06:44:48;;;;;;;53.72;14.65;;;5.90;99.90;;;;;;5054348;28;20063;-73
2021/11/09 06:47:13;;;;;;;51.55;14.85;;;5.80;99.90;;;;;;5053785;28;20131;-73
2021/11/09 06:49:39;;;;;;;55.35;15.23;;;5.80;99.90;;;;;;5057378;28;20067;-74
2021/11/09 06:52:05;;;;;;;51.90;15.45;;;5.80;99.90;;;;;;5043813;28;20051;-76
2021/11/09 06:54:31;;;;;;;62.95;16.45;;;5.70;99.90;;;;;;5053183;28;20486;-74
2021/11/09 06:56:56;;;;;;;71.13;15.75;;;5.70;99.90;;;;;;5054854;28;20063;-74
2021/11/09 06:59:22;;;;;;;58.30;16.50;;;5.70;99.90;;;;;;5053873;28;20389;-74
2021/11/09 07:01:49;;;;;;;59.30;16.10;;;5.80;99.90;;;;;;5059087;28;20053;-74
2021/11/09 07:04:15;;;;;;;66.57;16.73;;;5.70;99.90;;;;;;5053926;28;20129;-74
2021/11/09 07:06:41;;;;;;;56.20;16.08;;;5.80;99.90;;;;;;5037666;28;20051;-74
2021/11/09 07:09:07;;;;;;;64.45;16.10;;;5.80;99.90;;;;;;5053108;28;20052;-74
2021/11/09 07:11:33;;;;;;;46.65;14.73;;;5.80;99.90;;;;;;5031235;28;20055;-74
2021/11/09 07:13:58;;;;;;;52.47;15.18;;;5.80;99.90;;;;;;5034027;28;20053;-74
2021/11/09 07:16:26;;;;;;;51.75;14.63;;;5.80;99.90;;;;;;5036166;28;20114;-74
2021/11/09 07:18:56;;;;;;;57.85;13.85;;;5.80;99.90;;;;;;5017435;28;20092;-74
2021/11/09 07:21:22;;;;;;;56.92;14.43;;;5.80;99.90;;;;;;5043982;28;20044;-74
2021/11/09 07:23:48;;;;;;;45.25;13.80;;;5.80;99.90;;;;;;5054046;28;20048;-74
2021/11/09 07:26:13;;;;;;;43.55;13.00;;;5.90;99.90;;;;;;5053835;28;20048;-74
2021/11/09 07:28:40;;;;;;;56.33;13.25;;;5.90;99.90;;;;;;5036718;28;20052;-74
2021/11/09 07:31:06;;;;;;;50.25;13.48;;;5.90;99.90;;;;;;5036115;28;20084;-76
2021/11/09 07:33:32;;;;;;;47.40;13.63;;;5.90;99.90;;;;;;5038056;28;20129;-75
2021/11/09 07:35:58;;;;;;;51.10;13.00;;;5.90;99.90;;;;;;5047892;28;20064;-76
2021/11/09 07:38:24;;;;;;;51.45;13.10;;;5.90;99.90;;;;;;5052029;28;20123;-77
2021/11/09 07:40:50;;;;;;;41.78;11.82;;;6.00;99.90;;;;;;5035836;28;20135;-75
2021/11/09 07:43:17;;;;;;;45.42;11.30;;;6.20;99.90;;;;;;5053759;28;20048;-77
2021/11/09 07:45:48;;;;;;;44.65;11.73;;;6.20;99.90;;;;;;5052758;28;20207;-80
2021/11/09 07:48:17;;;;;;;46.17;11.38;;;6.20;99.90;;;;;;5054172;28;20041;-77
2021/11/09 07:50:43;;;;;;;42.83;11.40;;;6.20;99.90;;;;;;5069838;28;20052;-76
2021/11/09 07:53:14;;;;;;;36.47;10.45;;;6.20;99.90;;;;;;5051367;28;20036;-78
2021/11/09 07:55:42;;;;;;;37.90;10.60;;;6.40;99.90;;;;;;5052893;28;20435;-76
2021/11/09 07:58:13;;;;;;;41.97;11.02;;;6.30;99.90;;;;;;5053128;28;20063;-76
2021/11/09 08:00:41;;;;;;;44.33;11.43;;;6.40;99.90;;;;;;5051015;28;20074;-76
2021/11/09 08:05:44;;;;;;;40.75;10.95;;;6.50;99.90;;;;;;5052601;28;20036;-77
2021/11/09 08:08:15;;;;;;;37.92;11.43;;;6.50;99.90;;;;;;5052931;28;20546;-76
2021/11/09 08:10:41;;;;;;;36.45;11.75;;;6.60;99.90;;;;;;5035692;28;20044;-75
2021/11/09 08:13:08;;;;;;;43.88;11.80;;;6.60;99.90;;;;;;5040742;28;20066;-76
2021/11/09 08:15:34;;;;;;;34.83;10.57;;;6.60;99.90;;;;;;5047597;28;20040;-76
2021/11/09 08:18:00;;;;;;;39.45;11.52;;;6.70;99.90;;;;;;5046799;28;20044;-76
2021/11/09 08:20:26;;;;;;;42.92;12.05;;;6.80;99.90;;;;;;5036347;28;20094;-77
2021/11/09 08:22:53;;;;;;;39.85;12.13;;;6.80;99.90;;;;;;5053298;28;20048;-76
2021/11/09 08:25:19;;;;;;;39.45;11.40;;;6.90;99.90;;;;;;5084427;28;20150;-74
2021/11/09 08:27:45;;;;;;;42.33;12.38;;;6.90;99.90;;;;;;5034649;28;20044;-74
2021/11/09 08:30:11;;;;;;;41.60;11.88;;;7.00;99.90;;;;;;5056017;28;20059;-74
2021/11/09 08:32:37;;;;;;;40.42;12.85;;;6.90;99.90;;;;;;5033342;28;20424;-76
2021/11/09 08:35:04;;;;;;;40.65;12.98;;;7.20;99.90;;;;;;5067584;28;20063;-77
2021/11/09 08:37:32;;;;;;;35.53;12.85;;;7.10;99.90;;;;;;5036522;28;20411;-77
2021/11/09 08:40:00;;;;;;;41.80;12.77;;;7.10;99.90;;;;;;5032673;28;20084;-80
2021/11/09 08:42:37;;;;;;;33.47;11.45;;;7.20;99.90;;;;;;5066084;28;20055;-76
2021/11/09 08:45:10;;;;;;;48.08;12.38;;;7.30;99.90;;;;;;5035538;28;20099;-76
2021/11/09 08:47:42;;;;;;;46.08;12.60;;;7.30;99.90;;;;;;5037819;28;20052;-78
2021/11/09 08:50:08;;;;;;;39.92;12.75;;;7.40;99.90;;;;;;5035440;28;20155;-76
2021/11/09 08:52:35;;;;;;;50.05;13.10;;;7.50;99.90;;;;;;5051578;28;20051;-75
2021/11/09 09:05:24;;;;;;;36.38;11.68;;;7.70;99.90;;;;;;5055600;28;20087;-77
2021/11/09 09:07:50;;;;;;;42.60;13.10;;;7.80;99.90;;;;;;5040007;28;20080;-75
2021/11/09 09:10:16;;;;;;;38.88;12.02;;;7.80;99.90;;;;;;5045388;28;20110;-75
2021/11/09 09:12:44;;;;;;;38.70;12.45;;;8.00;99.90;;;;;;5045720;28;20040;-76
2021/11/09 09:15:12;;;;;;;41.25;12.18;;;8.00;99.90;;;;;;5065854;28;20056;-75
2021/11/09 09:17:38;;;;;;;34.97;11.60;;;8.10;99.90;;;;;;5059380;28;20052;-76
2021/11/09 09:20:14;;;;;;;37.15;11.60;;;8.30;99.90;;;;;;5055947;28;20106;-76
2021/11/09 09:22:45;;;;;;;39.50;10.55;;;8.40;99.90;;;;;;5033987;28;20097;-77
2021/11/09 09:30:52;;;;;;;35.60;11.02;;;8.50;99.90;;;;;;5053151;28;20079;-78
2021/11/09 09:55:37;;;;;;;40.03;10.00;;;9.20;99.90;;;;;;5010451;28;20496;-79
2021/11/09 09:58:11;;;;;;;29.50;9.32;;;9.20;99.90;;;;;;5001081;28;20085;-79
2021/11/09 10:00:39;;;;;;;32.00;9.30;;;9.20;99.90;;;;;;5009531;28;20232;-78
2021/11/09 10:03:05;;;;;;;30.55;8.95;;;9.30;99.90;;;;;;5014079;28;20041;-78
2021/11/09 10:05:35;;;;;;;33.78;9.60;;;9.40;99.90;;;;;;5013691;28;20408;-80
2021/11/09 10:08:13;;;;;;;27.30;8.80;;;9.40;99.90;;;;;;5011715;28;20038;-80
2021/11/09 10:10:39;;;;;;;32.13;9.40;;;9.50;99.90;;;;;;5009045;28;20037;-79
2021/11/09 10:13:13;;;;;;;33.50;9.23;;;9.50;99.90;;;;;;5012279;28;20033;-82
2021/11/09 10:15:47;;;;;;;36.50;9.50;;;9.60;99.90;;;;;;5003463;28;20053;-78
2021/11/09 10:18:17;;;;;;;36.75;9.77;;;9.60;99.90;;;;;;5016824;28;20038;-76
2021/11/09 10:20:55;;;;;;;28.67;8.77;;;9.70;99.90;;;;;;5022131;28;20072;-77
2021/11/09 10:23:26;;;;;;;26.55;8.60;;;9.70;99.90;;;;;;5053632;28;20040;-78
2021/11/09 10:25:59;;;;;;;27.17;9.32;;;9.80;99.90;;;;;;5037485;28;20456;-78
2021/11/09 10:28:26;;;;;;;26.77;8.77;;;9.90;99.90;;;;;;5052794;28;20044;-77
2021/11/09 10:31:04;;;;;;;32.83;8.52;;;9.90;99.90;;;;;;5043541;28;20086;-77
2021/11/09 10:33:41;;;;;;;31.25;9.32;;;10.10;99.90;;;;;;5058511;28;20484;-78
2021/11/09 10:36:30;;;;;;;25.00;9.32;;;10.00;99.90;;;;;;5051541;28;20057;-77
2021/11/09 10:39:22;;;;;;;31.02;9.27;;;10.00;99.90;;;;;;5051051;28;20053;-78
2021/11/09 10:42:17;;;;;;;28.20;8.57;;;10.00;99.90;;;;;;5047009;28;20059;-77
2021/11/09 10:44:56;;;;;;;31.15;8.60;;;10.00;99.90;;;;;;5051361;28;20147;-78
2021/11/09 10:47:31;;;;;;;25.42;9.30;;;10.00;99.90;;;;;;5053734;28;20124;-80
2021/11/09 10:49:58;;;;;;;29.08;10.13;;;10.00;99.90;;;;;;5038434;28;20469;-78
2021/11/09 10:52:28;;;;;;;30.02;9.85;;;10.00;99.90;;;;;;5046162;28;20040;-81
2021/11/09 10:57:45;;;;;;;29.08;9.20;;;10.20;99.90;;;;;;5055756;28;20384;-75
2021/11/09 11:05:22;;;;;;;30.27;8.95;;;10.40;99.90;;;;;;5063546;28;20037;-77
2021/11/09 11:07:52;;;;;;;24.02;8.50;;;10.30;99.90;;;;;;5070840;28;20047;-76
2021/11/09 11:10:39;;;;;;;30.08;8.27;;;10.30;99.90;;;;;;5034721;28;20108;-76
2021/11/09 11:13:24;;;;;;;27.95;9.13;;;10.40;99.90;;;;;;5043275;28;20044;-77
2021/11/09 11:16:00;;;;;;;;;;;10.40;99.90;;;;;;5051865;28;20059;-77
2021/11/09 11:18:34;;;;;;;23.60;8.23;;;10.40;99.90;;;;;;5055424;28;20406;-82
2021/11/09 11:21:05;;;;;;;28.13;8.38;;;10.50;99.90;;;;;;5015538;28;20045;-83
2021/11/09 11:23:31;;;;;;;27.67;8.40;;;10.50;99.90;;;;;;5038786;28;20048;-81
2021/11/09 11:26:04;;;;;;;33.35;8.88;;;11.10;99.90;;;;;;5054760;28;20249;-82
2021/11/09 11:28:31;;;;;;;24.65;8.00;;;10.70;99.90;;;;;;5020363;28;20531;-80
2021/11/09 11:30:57;;;;;;;27.63;8.45;;;10.80;99.90;;;;;;5068431;28;20048;-80
2021/11/09 11:33:23;;;;;;;28.77;8.10;;;10.60;99.90;;;;;;5054622;28;20059;-76
2021/11/09 11:35:50;;;;;;;30.02;8.73;;;10.50;99.90;;;;;;5027501;28;20503;-77
2021/11/09 11:38:20;;;;;;;29.83;9.10;;;10.50;99.90;;;;;;5063115;28;20131;-81
2021/11/09 11:40:46;;;;;;;25.95;7.75;;;10.60;99.90;;;;;;5046215;28;20044;-80
2021/11/09 11:43:12;;;;;;;24.27;8.07;;;10.60;99.90;;;;;;5053868;28;20076;-78
2021/11/09 11:45:51;;;;;;;25.73;7.80;;;10.60;99.90;;;;;;5036357;28;20071;-81
2021/11/09 11:48:16;;;;;;;26.13;7.57;;;10.60;99.90;;;;;;5073907;28;20135;-78
2021/11/09 11:50:44;;;;;;;32.08;9.02;;;10.60;99.90;;;;;;5049673;28;20139;-77
2021/11/09 11:53:10;;;;;;;31.35;8.52;;;10.60;99.90;;;;;;5040447;28;20483;-78
2021/11/09 11:55:36;;;;;;;23.48;8.18;;;10.60;99.90;;;;;;5060486;28;20419;-77
2021/11/09 11:58:12;;;;;;;28.55;9.43;;;10.60;99.90;;;;;;5042340;28;20053;-76
2021/11/09 12:00:58;;;;;;;31.20;9.50;;;10.70;99.90;;;;;;5049038;28;20067;-77
2021/11/09 12:03:24;;;;;;;28.77;9.18;;;10.70;99.90;;;;;;5058335;28;20040;-77
2021/11/09 12:05:54;;;;;;;31.27;9.35;;;10.70;99.90;;;;;;5034503;28;20047;-78
2021/11/09 12:08:43;;;;;;;28.75;9.00;;;10.70;99.90;;;;;;5053480;28;20040;-76
2021/11/09 12:11:41;;;;;;;32.78;9.45;;;10.70;99.90;;;;;;5036604;28;20056;-76
2021/11/09 12:14:10;;;;;;;28.73;9.38;;;10.70;99.90;;;;;;4997520;28;20065;-76
2021/11/09 12:16:44;;;;;;;28.23;9.35;;;10.70;99.90;;;;;;4973761;28;20042;-77
2021/11/09 12:19:35;;;;;;;31.05;9.73;;;10.70;99.90;;;;;;4974074;28;20062;-77
2021/11/09 12:22:16;;;;;;;31.88;9.32;;;10.80;99.90;;;;;;4973208;28;20513;-77
2021/11/09 12:24:47;;;;;;;32.97;10.18;;;10.70;99.90;;;;;;4978750;28;20502;-77
2021/11/09 12:27:13;;;;;;;34.63;10.05;;;10.70;99.90;;;;;;4973641;28;20038;-77
2021/11/09 12:29:53;;;;;;;30.73;9.32;;;10.80;99.90;;;;;;4955396;28;20082;-75
2021/11/09 12:32:32;;;;;;;38.13;10.18;;;10.80;99.90;;;;;;4985995;28;20051;-75
2021/11/09 12:35:10;;;;;;;35.58;9.80;;;10.70;99.90;;;;;;4969409;28;20363;-75
2021/11/09 12:37:39;;;;;;;38.03;9.65;;;10.80;99.90;;;;;;4957554;28;20137;-75
2021/11/09 12:40:25;;;;;;;36.75;9.48;;;10.80;99.90;;;;;;4953531;28;20070;-75
2021/11/09 12:43:18;;;;;;;39.97;9.82;;;10.80;99.90;;;;;;4976232;28;20055;-76
2021/11/09 12:46:06;;;;;;;37.22;9.98;;;10.70;99.90;;;;;;4940446;28;20544;-76
2021/11/09 12:48:35;;;;;;;28.75;9.43;;;10.80;99.90;;;;;;4946652;28;20062;-76
2021/11/09 12:51:04;;;;;;;36.67;9.93;;;10.80;99.90;;;;;;5001374;28;20076;-76
2021/11/09 12:53:31;;;;;;;29.17;9.07;;;10.80;99.90;;;;;;4996535;28;20116;-76
2021/11/09 12:56:07;;;;;;;33.28;9.70;;;11.00;99.90;;;;;;4972195;28;20104;-76
2021/11/09 12:58:38;;;;;;;34.35;9.98;;;10.70;99.90;;;;;;4994175;28;20077;-77
2021/11/09 13:01:15;;;;;;;33.17;9.85;;;10.70;99.90;;;;;;4992043;28;20125;-76
2021/11/09 13:04:15;;;;;;;32.25;10.30;;;10.70;99.90;;;;;;4976600;28;20085;-77
2021/11/09 13:07:46;;;;;;;37.50;9.73;;;10.70;99.90;;;;;;4991737;28;20157;-74
2021/11/09 13:09:44;;;;;;;38.37;9.77;;;10.70;99.90;;;;;;4986381;28;20053;-78
2021/11/09 13:12:18;;;;;;;33.47;10.13;;;10.70;99.90;;;;;;5008112;28;20069;-75
2021/11/09 13:14:45;;;;;;;31.38;10.40;;;10.70;99.90;;;;;;4979075;28;20130;-78
2021/11/09 13:17:14;;;;;;;33.08;10.75;;;10.80;99.90;;;;;;4990761;28;20058;-78
2021/11/09 13:19:42;;;;;;;30.02;9.80;;;10.70;99.90;;;;;;4990335;28;20050;-76
2021/11/09 13:22:15;;;;;;;34.20;9.77;;;10.70;99.90;;;;;;4977699;28;20049;-75
2021/11/09 13:24:55;;;;;;;31.50;10.38;;;10.70;99.90;;;;;;5010661;28;20136;-76
2021/11/09 13:27:32;;;;;;;33.80;9.45;;;10.70;99.90;;;;;;5023243;28;20044;-74
2021/11/09 13:30:08;;;;;;;30.00;9.75;;;10.60;99.90;;;;;;5033743;28;20052;-76
2021/11/09 13:32:35;;;;;;;35.28;9.85;;;10.70;99.90;;;;;;5049767;28;20052;-75
2021/11/09 13:35:00;;;;;;;24.77;9.18;;;10.70;99.90;;;;;;5030907;28;20060;-76
2021/11/09 13:37:35;;;;;;;35.50;9.68;;;10.70;99.90;;;;;;5070755;28;20127;-75
2021/11/09 13:40:03;;;;;;;28.77;9.88;;;10.70;99.90;;;;;;5038804;28;20072;-76
2021/11/09 13:42:29;;;;;;;27.23;9.98;;;10.70;99.90;;;;;;5056006;28;20044;-76
2021/11/09 13:44:56;;;;;;;33.10;9.98;;;10.60;99.90;;;;;;5037310;28;20487;-75
2021/11/09 13:47:31;;;;;;;38.10;10.68;;;10.60;99.90;;;;;;5038214;28;20036;-75
2021/11/09 13:50:10;;;;;;;35.93;10.47;;;10.60;99.90;;;;;;5055465;28;20569;-76
2021/11/09 13:52:50;;;;;;;35.08;10.27;;;10.60;99.90;;;;;;5054392;28;20512;-75
2021/11/09 13:55:18;;;;;;;42.45;10.88;;;10.60;99.90;;;;;;5034811;28;20041;-75
2021/11/09 13:57:44;;;;;;;31.83;11.10;;;10.60;99.90;;;;;;5051833;28;20428;-76
2021/11/09 14:00:34;;;;;;;31.52;10.73;;;10.60;99.90;;;;;;5050291;28;20052;-77
2021/11/09 14:16:37;;;;;;;35.88;10.07;;;10.60;99.90;;;;;;5054894;28;20110;-78
2021/11/09 14:19:07;;;;;;;29.85;9.40;;;10.60;99.90;;;;;;5054755;28;20044;-76
2021/11/09 14:21:37;;;;;;;29.05;9.50;;;10.60;99.90;;;;;;5054211;28;20084;-76
2021/11/09 14:24:12;;;;;;;33.78;9.32;;;10.70;99.90;;;;;;5037104;28;20476;-76
2021/11/09 14:26:38;;;;;;;33.47;9.48;;;10.60;99.90;;;;;;5050953;28;20479;-76
2021/11/09 14:29:16;;;;;;;32.58;9.35;;;10.60;99.90;;;;;;5054006;28;20048;-75
2021/11/09 14:31:47;;;;;;;27.65;8.25;;;10.60;99.90;;;;;;5049314;28;20052;-76
2021/11/09 14:34:19;;;;;;;32.67;8.43;;;10.50;99.90;;;;;;5066541;28;20048;-76
2021/11/09 14:36:47;;;;;;;30.48;8.85;;;10.50;99.90;;;;;;5057710;28;20090;-79
2021/11/09 14:39:13;;;;;;;38.38;8.48;;;10.50;99.90;;;;;;5054739;28;20150;-75
2021/11/09 14:44:56;;;;;;;29.88;8.45;;;10.50;99.90;;;;;;5064972;28;20040;-79
2021/11/09 14:47:22;;;;;;;37.55;9.10;;;10.40;99.90;;;;;;5053317;28;20454;-79
2021/11/09 14:50:07;;;;;;;30.05;8.82;;;10.40;99.90;;;;;;5052911;28;20040;-80
2021/11/09 14:52:35;;;;;;;26.83;8.70;;;10.40;99.90;;;;;;5044408;28;20052;-77
2021/11/09 14:55:23;;;;;;;28.60;8.25;;;10.40;99.90;;;;;;5035878;28;20045;-82
2021/11/09 14:57:49;;;;;;;31.17;9.55;;;10.40;99.90;;;;;;5071451;28;20451;-78
2021/11/09 15:00:16;;;;;;;33.78;9.02;;;10.30;99.90;;;;;;5058289;28;20094;-76
2021/11/09 15:02:42;;;;;;;32.38;8.65;;;10.30;99.90;;;;;;5061186;28;20159;-79
2021/11/09 15:05:13;;;;;;;37.88;8.30;;;10.30;99.90;;;;;;5042884;28;20047;-76
2021/11/09 15:07:55;;;;;;;36.22;9.13;;;10.30;99.90;;;;;;5063706;28;20053;-75
2021/11/09 15:10:40;;;;;;;33.60;8.43;;;10.30;99.90;;;;;;5036730;28;20064;-76
2021/11/09 15:31:46;;;;;;;34.92;9.80;;;10.10;99.90;;;;;;5051950;28;20098;-78
2021/11/09 15:39:10;;;;;;;37.10;9.32;;;10.10;99.90;;;;;;5041376;28;20518;-81
2021/11/09 15:41:36;;;;;;;33.30;9.23;;;10.10;99.90;;;;;;5036768;28;20049;-76
2021/11/09 15:44:02;;;;;;;33.42;9.27;;;10.10;99.90;;;;;;5041875;28;20462;-78
2021/11/09 15:46:28;;;;;;;37.90;9.27;;;10.10;99.90;;;;;;5036089;28;20044;-78
2021/11/09 15:48:54;;;;;;;46.95;9.93;;;10.10;99.90;;;;;;5061402;28;20071;-77